Quata, Brazil
Current Conditions -  °F | °C
As of 5:10 PM on Friday 31 Oct 2014 (Local Time) from SBDN Reporting Station
Broken Clouds Broken Clouds  
Wind Chill: 24°   Ceiling: 9000
Heat Index: 24°   Visibility: 6mi
Dew Point: 21°   Wind: 10mph
Humidity: 83%   Direction: 70°ENE
Pressure: 29.85"   Gusts: NA
Location:  22.25°S, 50.7°W
Report Text: SBDN 311910Z 07009KT 9999 SCT035 BKN090 24/21 Q1011 RETSRA
Loading
Personal Weather Stations






























Interactive Weather Map
Tropical Storm Tracking
New forecast layout! Learn more

10-Day Weather Forecast

Advertisements
Track Severe Weather on mobile